createdAt,value
2022-08-18T00:00:03.345Z,20.20
2022-08-18T00:02:32.762Z,20.13
2022-08-18T00:05:00.837Z,20.04
2022-08-18T00:07:32.752Z,19.92
2022-08-18T00:12:33.496Z,19.95
2022-08-18T00:15:04.701Z,19.98
2022-08-18T00:17:34.648Z,19.96
2022-08-18T00:20:03.122Z,19.88
2022-08-18T00:22:31.011Z,19.96
2022-08-18T00:27:29.749Z,20.05
2022-08-18T00:30:00.229Z,20.07
2022-08-18T00:32:33.538Z,20.21
2022-08-18T00:37:38.628Z,20.57
2022-08-18T00:40:09.427Z,20.81
2022-08-18T00:42:43.873Z,21.10
2022-08-18T00:45:15.421Z,21.19
2022-08-18T00:47:43.455Z,21.30
2022-08-18T00:50:18.626Z,21.59
2022-08-18T00:52:51.067Z,21.70
2022-08-18T00:55:20.003Z,21.85
2022-08-18T00:57:50.885Z,21.83
2022-08-18T01:00:19.479Z,21.84
2022-08-18T01:05:28.459Z,21.89
2022-08-18T01:07:56.492Z,21.84
2022-08-18T01:10:25.637Z,21.90
2022-08-18T01:12:56.048Z,21.88
2022-08-18T01:15:29.037Z,21.88
2022-08-18T01:18:16.697Z,21.85
2022-08-18T01:21:11.257Z,21.83
2022-08-18T01:23:41.479Z,21.85
2022-08-18T01:28:40.879Z,21.77
2022-08-18T01:33:42.245Z,21.78
2022-08-18T01:36:16.503Z,21.75
2022-08-18T01:41:26.357Z,21.72
2022-08-18T01:46:27.430Z,21.78
2022-08-18T01:48:55.353Z,21.83
2022-08-18T01:51:38.889Z,21.86
2022-08-18T01:54:12.657Z,21.77
2022-08-18T01:56:42.315Z,21.76
2022-08-18T01:59:13.703Z,21.79
2022-08-18T02:01:50.439Z,21.74
2022-08-18T02:04:41.360Z,21.75
2022-08-18T02:09:43.194Z,21.67
2022-08-18T02:12:12.283Z,21.69
2022-08-18T02:14:40.817Z,21.69
2022-08-18T02:17:11.120Z,21.66
2022-08-18T02:19:40.909Z,21.63
2022-08-18T02:22:09.965Z,21.63
2022-08-18T02:24:38.444Z,21.66
2022-08-18T02:27:08.759Z,21.61
2022-08-18T02:29:37.547Z,21.60
2022-08-18T02:32:06.891Z,21.53
2022-08-18T02:34:34.926Z,21.49
2022-08-18T02:37:03.408Z,21.53
2022-08-18T02:39:31.679Z,21.58
2022-08-18T02:41:59.686Z,21.52
2022-08-18T02:44:28.886Z,21.51
2022-08-18T02:46:56.798Z,21.52
2022-08-18T02:49:25.480Z,21.52
2022-08-18T02:51:54.184Z,21.50
2022-08-18T02:54:24.131Z,21.48
2022-08-18T02:56:54.063Z,21.45
2022-08-18T02:59:25.311Z,21.41
2022-08-18T03:01:56.642Z,21.40
2022-08-18T03:04:29.822Z,21.43
2022-08-18T03:07:02.072Z,21.47
2022-08-18T03:09:30.837Z,21.36
2022-08-18T03:11:59.855Z,21.46
2022-08-18T03:14:28.191Z,21.44
2022-08-18T03:16:58.236Z,21.40
2022-08-18T03:19:28.481Z,21.39
2022-08-18T03:21:59.395Z,21.19
2022-08-18T03:24:32.915Z,21.12
2022-08-18T03:27:02.374Z,20.96
2022-08-18T03:29:32.726Z,20.91
2022-08-18T03:37:00.855Z,20.77
2022-08-18T03:39:29.834Z,20.73
2022-08-18T03:42:01.573Z,20.72
2022-08-18T03:44:31.539Z,20.74
2022-08-18T03:47:00.408Z,20.73
2022-08-18T03:49:29.785Z,20.72
2022-08-18T03:54:31.134Z,20.53
2022-08-18T03:57:00.275Z,20.52
2022-08-18T03:59:30.735Z,20.47
2022-08-18T04:01:58.858Z,20.50
2022-08-18T04:04:29.641Z,20.50
2022-08-18T04:07:00.174Z,20.43
2022-08-18T04:09:30.844Z,20.50
2022-08-18T04:12:03.639Z,20.46
2022-08-18T04:14:32.811Z,20.43
2022-08-18T04:17:00.956Z,20.40
2022-08-18T04:19:31.055Z,20.37
2022-08-18T04:21:59.094Z,20.21
2022-08-18T04:27:01.114Z,19.74
2022-08-18T04:29:29.639Z,19.63
2022-08-18T04:31:57.775Z,19.63
2022-08-18T04:34:25.616Z,19.54
2022-08-18T04:36:54.795Z,19.50
2022-08-18T04:39:24.107Z,19.47
2022-08-18T04:41:52.573Z,19.41
2022-08-18T04:44:21.767Z,19.42
2022-08-18T04:46:52.220Z,19.42
2022-08-18T04:49:21.667Z,19.54
2022-08-18T04:52:34.278Z,19.59
2022-08-18T04:54:54.752Z,19.63
2022-08-18T04:57:23.161Z,19.67
2022-08-18T04:59:52.541Z,19.72
2022-08-18T05:02:22.585Z,19.70
2022-08-18T05:04:52.565Z,19.69
2022-08-18T05:07:23.695Z,19.69
2022-08-18T05:09:52.071Z,19.69
2022-08-18T05:12:25.991Z,19.67
2022-08-18T05:14:57.419Z,19.58
2022-08-18T05:17:30.400Z,19.52
2022-08-18T05:22:31.111Z,19.35
2022-08-18T05:25:04.427Z,19.37
2022-08-18T05:30:04.582Z,19.45
2022-08-18T05:32:47.859Z,19.53
2022-08-18T05:35:21.443Z,19.56
2022-08-18T05:38:04.646Z,19.53
2022-08-18T05:40:33.071Z,19.62
2022-08-18T05:43:03.395Z,19.63
2022-08-18T05:45:31.439Z,19.62
2022-08-18T05:48:01.609Z,19.66
2022-08-18T05:50:33.176Z,19.57
2022-08-18T05:53:13.349Z,19.61
2022-08-18T05:56:03.743Z,19.66
2022-08-18T05:58:36.663Z,19.71
2022-08-18T06:01:08.984Z,19.74
2022-08-18T06:03:45.151Z,19.83
2022-08-18T06:06:20.900Z,19.89
2022-08-18T06:08:57.446Z,19.95
2022-08-18T06:11:25.891Z,20.03
2022-08-18T06:13:59.538Z,19.99
2022-08-18T06:16:41.726Z,20.01
2022-08-18T06:19:28.078Z,19.99
2022-08-18T06:22:04.696Z,19.98
2022-08-18T06:24:39.655Z,20.06
2022-08-18T06:27:16.197Z,19.98
2022-08-18T06:29:58.248Z,20.01
2022-08-18T06:32:36.851Z,20.05
2022-08-18T06:35:18.239Z,20.12
2022-08-18T06:38:13.857Z,20.22
2022-08-18T06:40:41.897Z,20.30
2022-08-18T06:43:15.811Z,20.27
2022-08-18T06:45:52.217Z,20.30
2022-08-18T06:48:28.359Z,20.63
2022-08-18T06:53:53.701Z,20.94
2022-08-18T06:56:26.883Z,21.14
2022-08-18T06:58:55.394Z,20.90
2022-08-18T07:01:26.317Z,21.29
2022-08-18T07:03:58.299Z,21.05
2022-08-18T07:06:30.952Z,20.92
2022-08-18T07:09:20.585Z,21.20
2022-08-18T07:12:01.180Z,21.29
2022-08-18T07:14:29.078Z,21.33
2022-08-18T07:17:12.909Z,21.55
2022-08-18T07:19:41.436Z,21.54
2022-08-18T07:22:11.777Z,21.71
2022-08-18T07:24:42.681Z,21.83
2022-08-18T07:27:13.249Z,22.00
2022-08-18T07:32:34.492Z,21.83
2022-08-18T07:35:08.329Z,21.81
2022-08-18T07:37:42.127Z,21.72
2022-08-18T07:40:20.993Z,21.67
2022-08-18T07:43:01.268Z,21.46
2022-08-18T07:45:35.723Z,21.34
2022-08-18T07:48:34.970Z,20.97
2022-08-18T07:53:55.760Z,21.51
2022-08-18T07:56:34.872Z,21.71
2022-08-18T07:59:10.519Z,22.12
2022-08-18T08:01:45.244Z,22.26
2022-08-18T08:04:26.342Z,22.20
2022-08-18T08:07:22.900Z,22.31
2022-08-18T08:09:58.230Z,22.28
2022-08-18T08:12:34.607Z,22.28
2022-08-18T08:15:13.689Z,22.44
2022-08-18T08:17:54.233Z,22.52
2022-08-18T08:20:32.935Z,22.20
2022-08-18T08:23:17.387Z,22.28
2022-08-18T08:26:00.708Z,21.99
2022-08-18T08:31:35.914Z,21.85
2022-08-18T08:34:06.641Z,22.15
2022-08-18T08:36:40.050Z,22.39
2022-08-18T08:39:13.504Z,22.47
2022-08-18T08:41:45.931Z,22.21
2022-08-18T08:44:21.524Z,22.58
2022-08-18T08:46:56.515Z,22.54
2022-08-18T08:49:33.743Z,22.25
2022-08-18T08:52:12.134Z,22.14
2022-08-18T08:54:46.790Z,22.31
2022-08-18T08:57:17.326Z,22.26
2022-08-18T08:59:47.796Z,22.18
2022-08-18T09:02:47.926Z,22.20
2022-08-18T09:05:21.074Z,22.42
2022-08-18T09:08:22.219Z,22.49
2022-08-18T09:11:23.350Z,22.08
2022-08-18T09:14:27.094Z,22.23
2022-08-18T09:17:12.066Z,22.27
2022-08-18T09:20:09.391Z,22.01
2022-08-18T09:22:47.927Z,22.07
2022-08-18T09:25:34.044Z,21.90
2022-08-18T09:28:12.629Z,22.06
2022-08-18T09:30:47.608Z,21.99
2022-08-18T09:33:34.715Z,22.09
2022-08-18T09:36:25.836Z,22.15
2022-08-18T09:39:18.518Z,21.78
2022-08-18T09:41:54.416Z,21.96
2022-08-18T09:45:05.018Z,21.69
2022-08-18T09:48:02.945Z,21.67
2022-08-18T09:51:18.262Z,21.76
2022-08-18T09:54:13.655Z,21.79
2022-08-18T09:57:08.636Z,21.78
2022-08-18T09:59:59.668Z,21.86
2022-08-18T10:03:06.210Z,21.95
2022-08-18T10:05:36.599Z,21.75
2022-08-18T10:08:35.282Z,22.13
2022-08-18T10:11:24.402Z,21.96
2022-08-18T10:14:08.281Z,21.99
2022-08-18T10:17:16.016Z,21.99
2022-08-18T10:19:48.959Z,22.46
2022-08-18T10:22:39.581Z,23.01
2022-08-18T10:25:22.994Z,23.75
2022-08-18T10:27:59.505Z,24.38
2022-08-18T10:31:09.772Z,24.81
2022-08-18T10:33:59.792Z,25.17
2022-08-18T10:37:01.731Z,24.66
2022-08-18T10:39:46.538Z,25.26
2022-08-18T10:45:07.676Z,25.50
2022-08-18T10:47:39.291Z,26.55
2022-08-18T10:50:19.635Z,27.74
2022-08-18T10:56:04.120Z,26.52
2022-08-18T10:58:45.470Z,26.54
2022-08-18T11:01:30.990Z,26.28
2022-08-18T11:04:14.514Z,26.65
2022-08-18T11:07:07.870Z,27.24
2022-08-18T11:15:48.001Z,28.42
2022-08-18T11:18:32.078Z,28.16
2022-08-18T11:24:16.100Z,28.30
2022-08-18T11:26:58.900Z,27.95
2022-08-18T11:29:32.149Z,27.17
2022-08-18T11:34:45.451Z,26.90
2022-08-18T11:37:25.610Z,27.43
2022-08-18T11:42:31.167Z,27.17
2022-08-18T11:45:07.898Z,27.09
2022-08-18T11:47:39.008Z,27.37
2022-08-18T11:50:12.501Z,27.03
2022-08-18T11:52:54.021Z,27.39
2022-08-18T11:55:31.861Z,27.00
2022-08-18T11:58:02.436Z,27.03
2022-08-18T12:00:53.584Z,26.30
2022-08-18T12:06:27.094Z,27.07
2022-08-18T12:09:00.482Z,26.81
2022-08-18T12:11:31.445Z,26.42
2022-08-18T12:14:30.773Z,27.53
2022-08-18T12:16:59.763Z,27.52
2022-08-18T12:19:31.064Z,28.60
2022-08-18T12:22:01.574Z,29.36
2022-08-18T12:24:36.797Z,29.64
2022-08-18T12:27:20.336Z,29.66
2022-08-18T12:29:52.196Z,29.71
2022-08-18T12:40:32.567Z,29.07
2022-08-18T12:45:31.140Z,30.54
2022-08-18T12:48:04.416Z,30.44
2022-08-18T12:53:06.124Z,31.07
2022-08-18T13:03:09.773Z,31.03
2022-08-18T13:05:38.405Z,32.13
2022-08-18T13:08:12.456Z,32.32
2022-08-18T13:10:45.461Z,31.87
2022-08-18T13:13:14.253Z,31.96
2022-08-18T13:18:28.580Z,31.91
2022-08-18T13:23:25.636Z,32.31
2022-08-18T13:26:01.406Z,32.46
2022-08-18T13:33:33.835Z,32.06
2022-08-18T13:36:09.862Z,31.13
2022-08-18T13:41:06.443Z,31.75
2022-08-18T13:46:09.955Z,31.89
2022-08-18T13:58:53.318Z,32.05
2022-08-18T14:01:45.317Z,31.76
2022-08-18T14:06:46.787Z,31.89
2022-08-18T14:09:27.681Z,32.28
2022-08-18T14:17:17.064Z,31.80
2022-08-18T14:20:04.637Z,31.87
2022-08-18T14:22:50.382Z,32.97
2022-08-18T14:28:04.541Z,31.63
2022-08-18T14:30:33.472Z,32.47
2022-08-18T14:33:03.052Z,32.55
2022-08-18T14:36:04.378Z,31.85
2022-08-18T14:40:49.410Z,31.89
2022-08-18T14:45:53.832Z,31.87
2022-08-18T14:53:29.290Z,31.57
2022-08-18T15:00:58.224Z,32.54
2022-08-18T15:03:31.565Z,31.84
2022-08-18T15:08:35.405Z,31.73
2022-08-18T15:11:06.223Z,32.07
2022-08-18T15:13:41.441Z,31.53
2022-08-18T15:16:13.484Z,32.78
2022-08-18T15:26:57.880Z,31.53
2022-08-18T15:34:31.621Z,32.25
2022-08-18T15:37:09.922Z,31.96
2022-08-18T15:39:37.992Z,31.79
2022-08-18T15:44:39.851Z,29.98
2022-08-18T15:47:12.627Z,29.11
2022-08-18T15:49:41.809Z,29.26
2022-08-18T15:54:42.344Z,29.27
2022-08-18T16:00:02.259Z,29.66
2022-08-18T16:02:30.187Z,30.05
2022-08-18T16:05:09.206Z,30.68
2022-08-18T16:10:10.452Z,29.00
2022-08-18T16:12:38.294Z,29.45
2022-08-18T16:17:43.058Z,29.18
2022-08-18T16:25:16.555Z,28.54
2022-08-18T16:27:45.439Z,29.26
2022-08-18T16:37:42.333Z,29.64
2022-08-18T16:40:10.765Z,28.93
2022-08-18T16:42:38.762Z,27.88
2022-08-18T16:45:08.959Z,27.64
2022-08-18T16:47:38.978Z,27.30
2022-08-18T16:55:08.656Z,27.09
2022-08-18T17:00:42.443Z,27.15
2022-08-18T17:03:29.450Z,26.83
2022-08-18T17:06:01.651Z,27.40
2022-08-18T17:08:29.636Z,27.28
2022-08-18T17:10:58.821Z,27.07
2022-08-18T17:13:26.682Z,27.11
2022-08-18T17:15:54.502Z,26.76
2022-08-18T17:18:22.323Z,26.60
2022-08-18T17:20:50.468Z,26.15
2022-08-18T17:23:18.947Z,26.17
2022-08-18T17:28:23.846Z,25.61
2022-08-18T17:30:54.505Z,25.62
2022-08-18T17:33:27.401Z,25.38
2022-08-18T17:35:58.533Z,25.38
2022-08-18T17:38:29.993Z,25.57
2022-08-18T17:40:59.010Z,25.51
2022-08-18T17:46:06.427Z,25.31
2022-08-18T17:48:40.989Z,25.27
2022-08-18T17:51:31.619Z,24.80
2022-08-18T17:54:01.362Z,24.50
2022-08-18T17:56:37.502Z,24.32
2022-08-18T17:59:42.958Z,24.42
2022-08-18T18:02:28.827Z,24.26
2022-08-18T18:07:29.424Z,23.98
2022-08-18T18:10:01.706Z,23.99
2022-08-18T18:12:32.194Z,24.08
2022-08-18T18:15:03.292Z,23.80
2022-08-18T18:17:37.581Z,23.71
2022-08-18T18:20:25.907Z,23.56
2022-08-18T18:22:53.775Z,23.44
2022-08-18T18:25:34.609Z,23.34
2022-08-18T18:30:32.888Z,23.36
2022-08-18T18:33:03.888Z,23.37
2022-08-18T18:35:34.102Z,23.26
2022-08-18T18:38:06.271Z,23.16
2022-08-18T18:40:37.981Z,23.08
2022-08-18T18:43:27.140Z,22.94
2022-08-18T18:46:07.425Z,22.94
2022-08-18T18:48:48.318Z,22.96
2022-08-18T18:51:33.500Z,22.90
2022-08-18T18:54:17.840Z,22.92
2022-08-18T18:56:52.093Z,22.86
2022-08-18T19:02:33.694Z,22.81
2022-08-18T19:05:16.683Z,22.69
2022-08-18T19:08:07.982Z,22.72
2022-08-18T19:10:41.631Z,22.75
2022-08-18T19:13:33.156Z,22.65
2022-08-18T19:16:23.445Z,22.69
2022-08-18T19:19:35.142Z,22.64
2022-08-18T19:22:05.277Z,22.56
2022-08-18T19:24:40.356Z,22.48
2022-08-18T19:27:23.441Z,22.51
2022-08-18T19:29:55.342Z,22.43
2022-08-18T19:32:32.247Z,22.44
2022-08-18T19:35:04.445Z,22.35
2022-08-18T19:37:56.262Z,22.32
2022-08-18T19:40:29.388Z,22.28
2022-08-18T19:43:10.716Z,22.29
2022-08-18T19:45:49.958Z,22.19
2022-08-18T19:48:23.470Z,22.23
2022-08-18T19:50:58.004Z,22.18
2022-08-18T19:53:53.695Z,22.17
2022-08-18T19:56:40.313Z,22.10
2022-08-18T20:02:22.575Z,22.07
2022-08-18T20:05:04.619Z,22.05
2022-08-18T20:08:02.106Z,21.97
2022-08-18T20:10:57.936Z,22.02
2022-08-18T20:13:35.296Z,21.90
2022-08-18T20:16:45.071Z,21.92
2022-08-18T20:20:03.725Z,21.88
2022-08-18T20:22:35.791Z,21.83
2022-08-18T20:25:26.061Z,21.91
2022-08-18T20:28:14.821Z,21.81
2022-08-18T20:30:55.544Z,21.88
2022-08-18T20:33:32.054Z,21.83
2022-08-18T20:36:14.999Z,21.82
2022-08-18T20:38:45.692Z,21.79
2022-08-18T20:41:47.501Z,21.73
2022-08-18T20:44:29.925Z,21.77
2022-08-18T20:47:14.317Z,21.70
2022-08-18T20:49:54.098Z,21.70
2022-08-18T20:52:34.732Z,21.68
2022-08-18T20:55:12.893Z,21.60
2022-08-18T21:00:14.945Z,21.71
2022-08-18T21:02:52.260Z,21.63
2022-08-18T21:05:27.668Z,21.59
2022-08-18T21:08:06.144Z,21.52
2022-08-18T21:10:35.358Z,21.57
2022-08-18T21:13:05.976Z,21.64
2022-08-18T21:15:37.141Z,21.56
2022-08-18T21:18:24.077Z,21.45
2022-08-18T21:20:54.720Z,21.39
2022-08-18T21:23:26.230Z,21.44
2022-08-18T21:25:58.023Z,21.41
2022-08-18T21:28:28.990Z,21.41
2022-08-18T21:31:42.438Z,21.42
2022-08-18T21:33:53.297Z,21.38
2022-08-18T21:36:23.402Z,21.42
2022-08-18T21:38:58.506Z,21.43
2022-08-18T21:41:36.019Z,21.38
2022-08-18T21:44:08.272Z,21.34
2022-08-18T21:46:36.339Z,21.38
2022-08-18T21:49:06.644Z,21.41
2022-08-18T21:51:46.805Z,21.48
2022-08-18T21:54:17.857Z,21.42
2022-08-18T21:56:45.869Z,21.35
2022-08-18T21:59:15.925Z,21.36
2022-08-18T22:01:52.176Z,21.26
2022-08-18T22:04:27.238Z,21.28
2022-08-18T22:06:58.278Z,21.22
2022-08-18T22:09:45.925Z,21.33
2022-08-18T22:12:40.892Z,21.29
2022-08-18T22:15:11.486Z,21.27
2022-08-18T22:17:50.724Z,21.21
2022-08-18T22:20:52.353Z,21.23
2022-08-18T22:23:55.412Z,21.21
2022-08-18T22:26:27.283Z,21.25
2022-08-18T22:31:45.028Z,21.39
2022-08-18T22:34:16.292Z,21.33
2022-08-18T22:36:49.483Z,21.36
2022-08-18T22:39:26.198Z,21.34
2022-08-18T22:41:54.722Z,21.30
2022-08-18T22:44:23.263Z,21.38
2022-08-18T22:46:52.701Z,21.29
2022-08-18T22:49:21.487Z,21.41
2022-08-18T22:51:52.288Z,21.37
2022-08-18T22:54:21.557Z,21.41
2022-08-18T22:56:54.087Z,21.36
2022-08-18T22:59:25.513Z,21.40
2022-08-18T23:01:56.191Z,21.26
2022-08-18T23:04:25.736Z,21.33
2022-08-18T23:06:55.794Z,21.22
2022-08-18T23:09:25.875Z,21.16
2022-08-18T23:11:56.361Z,21.18
2022-08-18T23:14:24.278Z,21.19
2022-08-18T23:16:52.775Z,21.20
2022-08-18T23:19:22.296Z,21.21
2022-08-18T23:21:51.741Z,21.18
2022-08-18T23:24:22.481Z,21.19
2022-08-18T23:26:50.662Z,21.05
2022-08-18T23:29:19.931Z,20.98
2022-08-18T23:31:49.490Z,21.09
2022-08-18T23:34:18.652Z,21.02
2022-08-18T23:36:52.285Z,21.16
2022-08-18T23:39:21.803Z,21.05
2022-08-18T23:41:50.526Z,21.09
2022-08-18T23:44:18.788Z,21.06
2022-08-18T23:46:47.261Z,21.03
2022-08-18T23:49:15.845Z,20.98
2022-08-18T23:51:47.025Z,20.93
2022-08-18T23:54:18.056Z,21.01
2022-08-18T23:56:47.768Z,21.00
2022-08-18T23:59:20.838Z,20.98
